Huvudsida
METAR-TAF:

METAR-TAF

Flygplatser :

Heliport

Værøy, Norge

latitud: 67-39-16N, longitud: 12-43-37E, höjd: 5 m

Aktuellt väderrapport

Denna rapport gjordes för 3 timmar och 17 minuter sedan, klockan 06:50 UTC
Vind 13 kt från syd/sydväst
Temperatur 5°C
Fuktighet 75%
Tryck 997 hPa
Sikt 10 km eller mer
Spridda moln på en höjd av 4000 ft
skurar i närheten

METAR: ENVR 200650Z 20013KT 9999 VCSH SCT040 05/01 Q0997

Tid: 11:07 (10:07 UTC)


TAF: saknas

Aktuella väderrapporter och prognoser från 4000 flygplatser (METAR- och TAF-rapporter).

De tillgängliga stationerna syns som gula och röda prickar på kartan.

För musen över prickarna för att se namnen på stationerna.

Klicka sedan för att få väderrapporter och prognoser.

För att ändra kartan: Klicka på de gröna knapparna med ett svart kors på för att zooma in; den gröna knappen med ett streck på för att zooma ut; eller på de gröna pilarna för angränsande kartor.


METAR-TAF: